Sheffield, Ohio
Current Conditions -  °F | °C
As of 2:53 PM on Friday 24 Oct 2014 (Local Time) from KLPR Reporting Station
Clear Clear  
Wind Chill: 61°   Ceiling: Unl
Heat Index: 61°   Visibility: 8mi
Dew Point: 40°   Wind: 6mph
Humidity: 46%   Direction: 230°SW
Pressure: 30.03"   Gusts: NA
Location:  41.4372°N, 82.1333°W
Report Text: KLPR 241853Z AUTO 23005KT 8SM CLR 16/04 A3003 RMK AO2 SLP171 T01610044 TSNO
Loading
Personal Weather Stations






























Interactive Weather Map
Tropical Storm Tracking
New forecast layout! Learn more

10-Day Weather Forecast

Advertisements
Track Severe Weather on mobile